Аэропорт: Абакан. Абакан

ICAO: UNAA

METAR:
2024-07-24 14:00:00
UNAA 241400Z 27003MPS CAVOK 25/17 Q1004 R02/CLRD65 NOSIG RMK QFE731
TAF:
2024-07-24 13:40:00
TAF UNAA 241340Z 2415/2515 01003MPS CAVOK 
  TEMPO 2506/2512 06006MPS